Aérodrome :
LOGIN :

S'inscrire | Disclaimer

   EN    FR    IT 

 










Légende :    VFR   VFR Marginal   IFR   IFR Intensif   IFR Très Intensif
Visi : 
Plafond : 
>= 8 km
>= 3000ft
5 à 8 km
1000 à 3000 ft
1500m à 5 km
500 à 1000 ft
800 à 1500m
200 à 500 ft
< 800m
< 200 ft
Symboles :   Orages  Brouillard  Fortes neiges  Fortes précipitations  Vent > 20 kt
SIGMETs :   Divers  Orages  Givrage  Turbulence  Onde Orograph.  Cendres Volcan.






- Altitude de l'aérodrome : 121 ft
- Code IATA : HUY


EGNJ - Humberside

DERNIER METAR :
  • 171820Z 23020KT 9999 FEW036 07/03 Q1007

METARs EXPIRÉS :
  • 171750Z 22016KT 9999 FEW030 SCT040 08/03 Q1006
  • 171720Z 24015KT 9999 FEW030 SCT040 09/03 Q1006
  • 171650Z 25017KT 9999 FEW030 SCT040CB 09/03 Q1005
  • 171620Z 25017KT 9999 FEW028 SCT040 10/03 Q1005
  • 171550Z 25016KT 9999 FEW028 BKN040 10/03 Q1004

TAF TAF EGNJ
Valide du 17 à 18h jusqu'au 18 à 03h UTC


171656Z 1718/1803 25018G28KT 9999 FEW020
TEMPO 1718/1723 7000 SHRA
ATIS : +44 1652 682 020



MET'MAP, la Météo Aéronautique d'un coup d'oeil ! - Copyright ORBIFLY Décembre 2007 - Disclaimer

ORBIFLY MET'MAP TEAM :

Programmation & Développement : Alexandra Zaïnal
Sur une idée originale de : Baudouin d'Aumeries
Assistance à la programmation : Marc-Olivier Méhu
Soutien technique & logistique : Manuel Goepfert

Contact : metmap@orbifly.com




SOURCES & CREDITS :

   NOAA